Rp Zug — HE7351 — position and weather

sailwx.info

Track history (hours):
 
Tides and Currents Weather Stations Pressure Air Temp Water Temp Dewpoint Dewpoint Depression Visibility Wind Speed Wind Dir Waves Ship Positions

Rp Zug

Last reported at 2018-Apr-23 11:30 UTC. Time now 2018-Apr-23 11:52 UTC.
Position N 51°27' E 006°43'.

Length 110 m; draft 2.5 m.

Type: Tanker. MMSI: 269057351.

Date/timePositionNaut miles runAvg speedWind from/ knotsBaromVisibWave heightAir tempDewpointWater temp
2018-Apr-23 11:30N 51°27' E 006°43'2 4.1
2018-Apr-23 11:00N 51°29' E 006°41'2 4.5
2018-Apr-23 10:30N 51°30' E 006°43'3 5.0
2018-Apr-23 10:00N 51°32' E 006°41'3 5.1
2018-Apr-23 09:30N 51°35' E 006°41'3 5.0
2018-Apr-23 08:59N 51°34' E 006°37'3 5.2
2018-Apr-23 08:30N 51°36' E 006°36'3 5.1
2018-Apr-23 08:00N 51°39' E 006°36'2 4.8
2018-Apr-23 07:30N 51°39' E 006°32'3 5.3
2018-Apr-23 07:00N 51°40' E 006°28'12 4.8
2018-Apr-23 04:30N 51°49' E 006°16'3 5.5
2018-Apr-23 03:59N 51°50' E 006°11'3 5.6
2018-Apr-23 03:30N 51°51' E 006°07'3 5.2
2018-Apr-23 03:00N 51°52' E 006°03'0 0.6
2018-Apr-23 02:30N 51°52' E 006°03'2 4.4
2018-Apr-23 01:59N 51°52' E 005°59'2 4.1
2018-Apr-23 01:28N 51°52' E 005°56'3 5.0
2018-Apr-23 00:52N 51°51' E 005°51'2 5.9
2018-Apr-23 00:30N 51°52' E 005°49'3 5.9
2018-Apr-22 23:59N 51°53' E 005°44'3 5.6
2018-Apr-22 23:30N 51°54' E 005°40'3 5.8
2018-Apr-22 23:00N 51°54' E 005°35'3 5.7
2018-Apr-22 22:30N 51°53' E 005°31'3 5.5
2018-Apr-22 22:00N 51°53' E 005°26'3 5.8
2018-Apr-22 21:29N 51°50' E 005°24'3 5.5
2018-Apr-22 21:00N 51°48' E 005°20'3 5.4
2018-Apr-22 20:30N 51°49' E 005°16'3 6.2
2018-Apr-22 19:59N 51°49' E 005°11'3 6.3
2018-Apr-22 19:27N 51°49' E 005°06'3 6.7
2018-Apr-22 19:00N 51°49' E 005°01'4 7.7
2018-Apr-22 18:31N 51°50' E 004°55'4 7.9
2018-Apr-22 18:00N 51°48' E 004°49'4 7.3
2018-Apr-22 17:30N 51°46' E 004°44'4 8.3
2018-Apr-22 17:00N 51°43' E 004°39'5 9.1
2018-Apr-22 16:30N 51°42' E 004°32'21 4.5
2018-Apr-22 11:41N 51°23' E 004°15'2 8.1
2018-Apr-22 11:25N 51°22' E 004°18'3 8.5
2018-Apr-22 11:00N 51°19' E 004°19'1 2.9
2018-Apr-22 10:30N 51°17' E 004°20'0 0.0
2018-Apr-22 10:00N 51°17' E 004°20'0 0.0
2018-Apr-22 09:30N 51°17' E 004°20'0 0.0
2018-Apr-22 09:00N 51°17' E 004°20'0 0.0
2018-Apr-22 08:30N 51°17' E 004°20'0 0.0
2018-Apr-22 07:59N 51°17' E 004°20'0 0.0
2018-Apr-22 07:30N 51°17' E 004°20'0 0.0
2018-Apr-22 07:00N 51°17' E 004°20'0 0.1
2018-Apr-22 06:30N 51°17' E 004°20'0 0.1
2018-Apr-22 06:00N 51°17' E 004°20'0 0.0
2018-Apr-22 05:30N 51°17' E 004°20'0 0.0
2018-Apr-22 04:59N 51°17' E 004°20'0 0.0
2018-Apr-22 04:30N 51°17' E 004°20'0 0.0
2018-Apr-22 04:00N 51°17' E 004°20'0 0.0
2018-Apr-22 03:30N 51°17' E 004°20'0 0.0
2018-Apr-22 03:00N 51°17' E 004°20'0 0.0
2018-Apr-22 02:30N 51°17' E 004°20'0 0.0
2018-Apr-22 02:00N 51°17' E 004°20'0 0.0
2018-Apr-22 01:30N 51°17' E 004°20'0 0.0
2018-Apr-22 01:00N 51°17' E 004°20'0 0.3
2018-Apr-22 00:30N 51°17' E 004°20'15 6.8
2018-Apr-21 22:18N 51°32' E 004°14'3 9.0
2018-Apr-21 21:58N 51°35' E 004°13'4 7.8
2018-Apr-21 21:30N 51°38' E 004°14'510.0
2018-Apr-21 20:59N 51°40' E 004°22'2 4.5
2018-Apr-21 20:30N 51°41' E 004°25'3 6.2
2018-Apr-21 20:00N 51°42' E 004°30'510.1
2018-Apr-21 19:30N 51°43' E 004°38'5 9.5
2018-Apr-21 19:00N 51°45' E 004°44'4 8.7
2018-Apr-21 18:30N 51°48' E 004°50'5 9.9
2018-Apr-21 18:00N 51°50' E 004°57'610.8
2018-Apr-21 17:30N 51°49' E 005°06'510.8
2018-Apr-21 17:00N 51°49' E 005°15'5 9.6
2018-Apr-21 16:31N 51°49' E 005°23'910.5
2018-Apr-21 15:36N 51°54' E 005°36'111.6
2018-Apr-21 15:31N 51°54' E 005°38'1010.4
2018-Apr-21 14:32N 51°52' E 005°54'111.9
2018-Apr-21 14:28N 51°53' E 005°55'4 8.3
2018-Apr-21 14:00N 51°53' E 006°01'611.0
2018-Apr-21 13:30N 51°51' E 006°10'1210.3
2018-Apr-21 12:22N 51°44' E 006°25'3 9.3
2018-Apr-21 12:00N 51°41' E 006°28'510.5
2018-Apr-21 11:30N 51°39' E 006°36'510.2
2018-Apr-21 11:00N 51°34' E 006°37'4 7.9
2018-Apr-21 10:30N 51°32' E 006°42'3 6.8
2018-Apr-21 10:00N 51°28' E 006°43'5 9.5
2018-Apr-21 09:30N 51°24' E 006°45'4 7.7
2018-Apr-21 09:00N 51°21' E 006°40'4 8.4
2018-Apr-21 08:30N 51°17' E 006°42'3 6.7
2018-Apr-21 08:00N 51°14' E 006°45'3 6.0
2018-Apr-21 07:30N 51°11' E 006°47'3 5.1
2018-Apr-21 07:00N 51°10' E 006°51'4 8.4
2018-Apr-21 06:30N 51°06' E 006°52'4 8.3
2018-Apr-21 06:00N 51°03' E 006°57'5 9.6
2018-Apr-21 05:30N 50°58' E 006°60'4 9.0
2018-Apr-21 05:00N 50°54' E 007°00'3 5.6
2018-Apr-21 04:30N 50°51' E 006°60'4 8.7
2018-Apr-21 04:00N 50°47' E 007°02'510.9
2018-Apr-21 03:30N 50°43' E 007°08'611.1
2018-Apr-21 03:00N 50°38' E 007°13'5 9.9
2018-Apr-21 02:28N 50°34' E 007°17'72 7.6
2018-Apr-20 17:00N 49°36' E 008°25'5 9.7
2018-Apr-20 16:30N 49°32' E 008°26'5 9.0
2018-Apr-20 16:00N 49°27' E 008°27'4 8.0
2018-Apr-20 15:30N 49°24' E 008°30'111 5.5
2018-Apr-19 19:14N 47°39' E 007°31'0 1.1
2018-Apr-19 18:54N 47°39' E 007°32'0 0.6
2018-Apr-19 18:30N 47°39' E 007°32'3 7.0
2018-Apr-19 18:00N 47°36' E 007°35'0 0.0
2018-Apr-19 17:30N 47°36' E 007°35'0 0.0
2018-Apr-19 17:00N 47°36' E 007°35'0 0.0
2018-Apr-19 16:30N 47°36' E 007°35'0 0.0
2018-Apr-19 16:00N 47°36' E 007°35'0 0.0
2018-Apr-19 15:30N 47°36' E 007°35'0 0.0
2018-Apr-19 15:00N 47°36' E 007°35'0 0.0
2018-Apr-19 14:30N 47°36' E 007°35'0 0.0
2018-Apr-19 14:00N 47°36' E 007°35'0 0.0
2018-Apr-19 13:30N 47°36' E 007°35'0 0.0
2018-Apr-19 13:00N 47°36' E 007°35'0 0.0
2018-Apr-19 12:30N 47°36' E 007°35'0 0.0
2018-Apr-19 12:00N 47°36' E 007°35'0 0.0
2018-Apr-19 11:30N 47°36' E 007°35'0 0.0
2018-Apr-19 11:00N 47°36' E 007°35'0 0.0
2018-Apr-19 10:30N 47°36' E 007°35'0 0.0
2018-Apr-19 10:00N 47°36' E 007°35'1 1.0
2018-Apr-19 09:30N 47°37' E 007°35'3 6.5
2018-Apr-19 09:00N 47°39' E 007°32'0 0.7
2018-Apr-19 08:25N 47°39' E 007°31'106 4.3
2018-Apr-18 07:40N 49°19' E 008°28'1 4.2
2018-Apr-18 07:30N 49°19' E 008°27'3 5.0
2018-Apr-18 06:51N 49°22' E 008°30'2 5.3
2018-Apr-18 06:30N 49°24' E 008°30'3 5.4
2018-Apr-18 06:00N 49°26' E 008°30'3 5.2
2018-Apr-18 05:30N 49°27' E 008°26'2 4.1
2018-Apr-18 05:00N 49°29' E 008°27'1 3.0
2018-Apr-18 04:30N 49°31' E 008°26'0 0.0
2018-Apr-18 04:00N 49°31' E 008°26'0 0.0
2018-Apr-18 03:30N 49°31' E 008°26'2 3.1
2018-Apr-18 03:00N 49°32' E 008°26'2 4.9
2018-Apr-18 02:30N 49°35' E 008°25'66 3.6
2018-Apr-17 07:58N 50°27' E 007°23'2 4.6
2018-Apr-17 07:30N 50°29' E 007°20'3 5.2
2018-Apr-17 07:00N 50°31' E 007°18'3 5.1
2018-Apr-17 06:30N 50°33' E 007°17'3 5.2
2018-Apr-17 06:00N 50°35' E 007°14'3 5.2
2018-Apr-17 05:30N 50°37' E 007°13'2 4.4
2018-Apr-17 05:00N 50°40' E 007°12'2 4.9
2018-Apr-17 04:30N 50°42' E 007°10'2 4.7
2018-Apr-17 04:00N 50°43' E 007°07'2 4.7
2018-Apr-17 03:30N 50°45' E 007°06'3 5.0
2018-Apr-17 03:00N 50°47' E 007°03'2 4.7
2018-Apr-17 02:30N 50°49' E 007°01'2 4.2
2018-Apr-17 02:00N 50°50' E 006°59'2 4.5
2018-Apr-17 01:30N 50°52' E 007°01'2 3.7
2018-Apr-17 01:00N 50°54' E 007°02'2 4.2
2018-Apr-17 00:30N 50°54' E 006°59'3 5.1
2018-Apr-17 00:00N 50°57' E 006°58'2 4.9
2018-Apr-16 23:30N 50°59' E 006°60'2 4.4
2018-Apr-16 23:00N 51°01' E 006°58'2 4.7
2018-Apr-16 22:30N 51°03' E 006°56'3 5.1
2018-Apr-16 22:00N 51°04' E 006°53'1 3.0
2018-Apr-16 21:30N 51°06' E 006°52'2 3.8
2018-Apr-16 21:00N 51°07' E 006°51'2 4.4
2018-Apr-16 20:30N 51°10' E 006°51'2 4.4
2018-Apr-16 20:00N 51°09' E 006°48'2 4.7
2018-Apr-16 19:30N 51°11' E 006°47'2 4.6
2018-Apr-16 19:00N 51°11' E 006°44'2 4.6
2018-Apr-16 18:30N 51°14' E 006°44'1 3.0
2018-Apr-16 18:00N 51°14' E 006°46'2 4.7
2018-Apr-16 17:30N 51°16' E 006°43'2 3.7
2018-Apr-16 17:00N 51°17' E 006°43'2 4.6
2018-Apr-16 16:30N 51°20' E 006°44'3 5.2
2018-Apr-16 16:00N 51°21' E 006°40'2 3.1
2018-Apr-16 15:30N 51°22' E 006°41'2 4.9
2018-Apr-16 15:00N 51°24' E 006°44'2 4.5
2018-Apr-16 14:30N 51°26' E 006°43'2 4.7
2018-Apr-16 14:00N 51°28' E 006°43'2 3.6
2018-Apr-16 13:30N 51°29' E 006°41'2 3.7
2018-Apr-16 13:00N 51°31' E 006°43'2 4.5
2018-Apr-16 12:30N 51°33' E 006°41'2 3.7
2018-Apr-16 11:59N 51°34' E 006°38'2 3.4
2018-Apr-16 11:30N 51°35' E 006°36'3 5.5
2018-Apr-16 10:59N 51°38' E 006°36'2 3.8
2018-Apr-16 10:28N 51°40' E 006°34'3 5.5
2018-Apr-16 09:59N 51°40' E 006°30'3 5.4
2018-Apr-16 09:28N 51°42' E 006°28'10 4.9
2018-Apr-16 07:22N 51°49' E 006°16'2 6.0
2018-Apr-16 07:00N 51°50' E 006°12'3 5.4
2018-Apr-16 06:30N 51°51' E 006°08'3 6.0
2018-Apr-16 06:00N 51°52' E 006°04'0 0.4
2018-Apr-16 05:30N 51°52' E 006°03'2 4.4
2018-Apr-16 05:00N 51°53' E 005°60'3 4.6
2018-Apr-16 04:16N 51°52' E 005°54'2 5.5
2018-Apr-16 03:53N 51°51' E 005°51'3 6.3
2018-Apr-16 03:29N 51°53' E 005°48'3 6.5
2018-Apr-16 03:00N 51°53' E 005°43'3 6.4
2018-Apr-16 02:30N 51°54' E 005°38'3 6.5
2018-Apr-16 02:00N 51°54' E 005°33'3 6.3
2018-Apr-16 01:30N 51°53' E 005°28'3 6.2
2018-Apr-16 01:00N 51°51' E 005°25'3 6.4
2018-Apr-16 00:29N 51°48' E 005°21'3 5.8
2018-Apr-16 00:00N 51°49' E 005°17'3 6.6
2018-Apr-15 23:30N 51°49' E 005°12'3 6.5
2018-Apr-15 23:00N 51°49' E 005°07'3 6.5
2018-Apr-15 22:30N 51°49' E 005°01'4 7.6
2018-Apr-15 22:00N 51°50' E 004°55'4 7.5
2018-Apr-15 21:30N 51°49' E 004°49'4 7.4
2018-Apr-15 21:00N 51°49' E 004°43'4 7.8
2018-Apr-15 20:30N 51°48' E 004°37'3 6.8
2018-Apr-15 20:00N 51°50' E 004°33'4 7.5
2018-Apr-15 19:30N 51°50' E 004°27'4 7.2
2018-Apr-15 19:00N 51°51' E 004°21'3 7.0
2018-Apr-15 18:30N 51°52' E 004°16'2 4.1
2018-Apr-15 18:00N 51°54' E 004°14'2 4.6
2018-Apr-15 17:30N 51°56' E 004°12'1 2.8
2018-Apr-15 17:00N 51°56' E 004°10'0 0.0
2018-Apr-15 16:30N 51°56' E 004°10'0 0.0
2018-Apr-15 16:00N 51°56' E 004°10'0 0.0
2018-Apr-15 15:30N 51°56' E 004°10'0 0.0
2018-Apr-15 15:00N 51°56' E 004°10'0 0.0
2018-Apr-15 14:30N 51°56' E 004°10'0 0.0
2018-Apr-15 14:00N 51°56' E 004°10'0 0.0
2018-Apr-15 13:30N 51°56' E 004°10'0 0.0
2018-Apr-15 13:00N 51°56' E 004°10'0 0.0
2018-Apr-15 12:30N 51°56' E 004°10'0 0.0
2018-Apr-15 12:00N 51°56' E 004°10'0 0.0
2018-Apr-15 11:30N 51°56' E 004°10'0 0.0
2018-Apr-15 11:00N 51°56' E 004°10'0 0.0
2018-Apr-15 10:30N 51°56' E 004°10'0 0.0
2018-Apr-15 10:00N 51°56' E 004°10'0 0.0
2018-Apr-15 09:30N 51°56' E 004°10'0 0.0
2018-Apr-15 09:00N 51°56' E 004°10'3 6.7
2018-Apr-15 08:30N 51°54' E 004°14'0 0.5
2018-Apr-15 08:00N 51°54' E 004°14'0 0.0
2018-Apr-15 07:30N 51°54' E 004°14'0 0.0
2018-Apr-15 07:00N 51°54' E 004°14'0 0.0
2018-Apr-15 06:30N 51°54' E 004°14'0 0.0
2018-Apr-15 06:00N 51°54' E 004°14'0 0.0
2018-Apr-15 05:30N 51°54' E 004°14'0 0.0
2018-Apr-15 05:00N 51°54' E 004°14'0 0.0
2018-Apr-15 04:30N 51°54' E 004°14'0 0.0
2018-Apr-15 03:59N 51°54' E 004°14'0 0.0
2018-Apr-15 03:30N 51°54' E 004°14'0 0.0
2018-Apr-15 03:00N 51°54' E 004°14'0 0.0
2018-Apr-15 02:30N 51°54' E 004°14'0 0.0
2018-Apr-15 02:00N 51°54' E 004°14'0 0.0
2018-Apr-15 01:30N 51°54' E 004°14'0 0.0
2018-Apr-15 01:00N 51°54' E 004°14'0 0.0
2018-Apr-15 00:30N 51°54' E 004°14'0 0.0
2018-Apr-15 00:00N 51°54' E 004°14'0 0.0
2018-Apr-14 23:30N 51°54' E 004°14'0 0.0
2018-Apr-14 23:00N 51°54' E 004°14'0 0.0
2018-Apr-14 22:30N 51°54' E 004°14'0 0.0
2018-Apr-14 22:00N 51°54' E 004°14'0 0.0
2018-Apr-14 21:30N 51°54' E 004°14'0 0.0
2018-Apr-14 20:59N 51°54' E 004°14'0 0.0
2018-Apr-14 20:30N 51°54' E 004°14'0 0.0
2018-Apr-14 20:00N 51°54' E 004°14'0 0.0
2018-Apr-14 19:29N 51°54' E 004°14'0 0.0
2018-Apr-14 18:59N 51°54' E 004°14'0 0.0
2018-Apr-14 18:30N 51°54' E 004°14'0 0.0
2018-Apr-14 17:59N 51°54' E 004°14'0 0.0
2018-Apr-14 17:30N 51°54' E 004°14'0 0.0
2018-Apr-14 17:00N 51°54' E 004°14'0 0.0
2018-Apr-14 16:30N 51°54' E 004°14'0 0.0
2018-Apr-14 16:00N 51°54' E 004°14'0 0.0
2018-Apr-14 15:30N 51°54' E 004°14'0 0.0
2018-Apr-14 15:00N 51°54' E 004°14'0 0.0
2018-Apr-14 14:30N 51°54' E 004°14'0 0.0
2018-Apr-14 14:00N 51°54' E 004°14'0 0.0
2018-Apr-14 13:30N 51°54' E 004°14'0 0.0
2018-Apr-14 13:00N 51°54' E 004°14'0 0.0
2018-Apr-14 12:29N 51°54' E 004°14'0 0.0
2018-Apr-14 12:00N 51°54' E 004°14'0 0.0
2018-Apr-14 11:30N 51°54' E 004°14'0 0.0
2018-Apr-14 11:00N 51°54' E 004°14'0 0.0
2018-Apr-14 10:30N 51°54' E 004°14'0 0.0
2018-Apr-14 10:00N 51°54' E 004°14'0 0.0
2018-Apr-14 09:30N 51°54' E 004°14'0 0.0
2018-Apr-14 09:00N 51°54' E 004°14'0 0.0
2018-Apr-14 08:30N 51°54' E 004°14'0 0.0
2018-Apr-14 08:00N 51°54' E 004°14'0 0.0
2018-Apr-14 07:30N 51°54' E 004°14'0 0.0
2018-Apr-14 07:00N 51°54' E 004°14'0 0.0
2018-Apr-14 06:30N 51°54' E 004°14'0 0.0
2018-Apr-14 06:00N 51°54' E 004°14'0 0.0
2018-Apr-14 05:30N 51°54' E 004°14'0 0.0
2018-Apr-14 05:00N 51°54' E 004°14'0 0.0
2018-Apr-14 04:30N 51°54' E 004°14'0 0.0
2018-Apr-14 04:00N 51°54' E 004°14'0 0.0
2018-Apr-14 03:30N 51°54' E 004°14'0 0.0
2018-Apr-14 03:00N 51°54' E 004°14'0 0.0
2018-Apr-14 02:30N 51°54' E 004°14'0 0.0
2018-Apr-14 02:00N 51°54' E 004°14'0 0.0
2018-Apr-14 01:30N 51°54' E 004°14'0 0.0
2018-Apr-14 01:00N 51°54' E 004°14'0 0.0
2018-Apr-14 00:30N 51°54' E 004°14'0 0.0
2018-Apr-14 00:00N 51°54' E 004°14'0 0.0
2018-Apr-13 23:30N 51°54' E 004°14'0 0.0
2018-Apr-13 23:00N 51°54' E 004°14'0 0.0
2018-Apr-13 22:30N 51°54' E 004°14'0 0.0
2018-Apr-13 22:00N 51°54' E 004°14'0 0.0
2018-Apr-13 21:30N 51°54' E 004°14'0 0.0
2018-Apr-13 21:00N 51°54' E 004°14'0 0.0
2018-Apr-13 20:30N 51°54' E 004°14'0 0.0
2018-Apr-13 20:00N 51°54' E 004°14'0 0.0
2018-Apr-13 19:30N 51°54' E 004°14'0 0.0
2018-Apr-13 19:00N 51°54' E 004°14'0 0.0
2018-Apr-13 18:30N 51°54' E 004°14'0 0.0
2018-Apr-13 18:00N 51°54' E 004°14'0 0.0
2018-Apr-13 17:30N 51°54' E 004°14'0 0.0
2018-Apr-13 17:00N 51°54' E 004°14'0 0.0
2018-Apr-13 16:30N 51°54' E 004°14'0 0.0
2018-Apr-13 16:00N 51°54' E 004°14'0 0.3
2018-Apr-13 15:30N 51°54' E 004°14'1 2.9
2018-Apr-13 15:00N 51°52' E 004°15'4 7.3
2018-Apr-13 14:30N 51°51' E 004°21'4 7.4
2018-Apr-13 14:00N 51°50' E 004°26'4 7.8
2018-Apr-13 13:30N 51°50' E 004°33'4 7.0
2018-Apr-13 13:00N 51°48' E 004°38'4 7.1
2018-Apr-13 12:30N 51°49' E 004°43'4 8.6
2018-Apr-13 12:00N 51°49' E 004°50'5 9.1
2018-Apr-13 11:30N 51°50' E 004°57'  
Track history (hours):
 
Tides and Currents Weather Stations Pressure Air Temp Water Temp Dewpoint Dewpoint Depression Visibility Wind Speed Wind Dir Waves Ship Positions

Rp Zug

Last reported at 2018-Apr-23 11:30 UTC. Time now 2018-Apr-23 11:52 UTC.
Position N 51°27' E 006°43'.

Length 110 m; draft 2.5 m.

Type: Tanker. MMSI: 269057351.

Date/timePositionNaut miles runAvg speedWind from/ knotsBaromVisibWave heightAir tempDewpointWater temp
2018-Apr-23 11:30N 51°27' E 006°43'2 4.1
2018-Apr-23 11:00N 51°29' E 006°41'2 4.5
2018-Apr-23 10:30N 51°30' E 006°43'3 5.0
2018-Apr-23 10:00N 51°32' E 006°41'3 5.1
2018-Apr-23 09:30N 51°35' E 006°41'3 5.0
2018-Apr-23 08:59N 51°34' E 006°37'3 5.2
2018-Apr-23 08:30N 51°36' E 006°36'3 5.1
2018-Apr-23 08:00N 51°39' E 006°36'2 4.8
2018-Apr-23 07:30N 51°39' E 006°32'3 5.3
2018-Apr-23 07:00N 51°40' E 006°28'12 4.8
2018-Apr-23 04:30N 51°49' E 006°16'3 5.5
2018-Apr-23 03:59N 51°50' E 006°11'3 5.6
2018-Apr-23 03:30N 51°51' E 006°07'3 5.2
2018-Apr-23 03:00N 51°52' E 006°03'0 0.6
2018-Apr-23 02:30N 51°52' E 006°03'2 4.4
2018-Apr-23 01:59N 51°52' E 005°59'2 4.1
2018-Apr-23 01:28N 51°52' E 005°56'3 5.0
2018-Apr-23 00:52N 51°51' E 005°51'2 5.9
2018-Apr-23 00:30N 51°52' E 005°49'3 5.9
2018-Apr-22 23:59N 51°53' E 005°44'3 5.6
2018-Apr-22 23:30N 51°54' E 005°40'3 5.8
2018-Apr-22 23:00N 51°54' E 005°35'3 5.7
2018-Apr-22 22:30N 51°53' E 005°31'3 5.5
2018-Apr-22 22:00N 51°53' E 005°26'3 5.8
2018-Apr-22 21:29N 51°50' E 005°24'3 5.5
2018-Apr-22 21:00N 51°48' E 005°20'3 5.4
2018-Apr-22 20:30N 51°49' E 005°16'3 6.2
2018-Apr-22 19:59N 51°49' E 005°11'3 6.3
2018-Apr-22 19:27N 51°49' E 005°06'3 6.7
2018-Apr-22 19:00N 51°49' E 005°01'4 7.7
2018-Apr-22 18:31N 51°50' E 004°55'4 7.9
2018-Apr-22 18:00N 51°48' E 004°49'4 7.3
2018-Apr-22 17:30N 51°46' E 004°44'4 8.3
2018-Apr-22 17:00N 51°43' E 004°39'5 9.1
2018-Apr-22 16:30N 51°42' E 004°32'21 4.5
2018-Apr-22 11:41N 51°23' E 004°15'2 8.1
2018-Apr-22 11:25N 51°22' E 004°18'3 8.5
2018-Apr-22 11:00N 51°19' E 004°19'1 2.9
2018-Apr-22 10:30N 51°17' E 004°20'0 0.0
2018-Apr-22 10:00N 51°17' E 004°20'0 0.0
2018-Apr-22 09:30N 51°17' E 004°20'0 0.0
2018-Apr-22 09:00N 51°17' E 004°20'0 0.0
2018-Apr-22 08:30N 51°17' E 004°20'0 0.0
2018-Apr-22 07:59N 51°17' E 004°20'0 0.0
2018-Apr-22 07:30N 51°17' E 004°20'0 0.0
2018-Apr-22 07:00N 51°17' E 004°20'0 0.1
2018-Apr-22 06:30N 51°17' E 004°20'0 0.1
2018-Apr-22 06:00N 51°17' E 004°20'0 0.0
2018-Apr-22 05:30N 51°17' E 004°20'0 0.0
2018-Apr-22 04:59N 51°17' E 004°20'0 0.0
2018-Apr-22 04:30N 51°17' E 004°20'0 0.0
2018-Apr-22 04:00N 51°17' E 004°20'0 0.0
2018-Apr-22 03:30N 51°17' E 004°20'0 0.0
2018-Apr-22 03:00N 51°17' E 004°20'0 0.0
2018-Apr-22 02:30N 51°17' E 004°20'0 0.0
2018-Apr-22 02:00N 51°17' E 004°20'0 0.0
2018-Apr-22 01:30N 51°17' E 004°20'0 0.0
2018-Apr-22 01:00N 51°17' E 004°20'0 0.3
2018-Apr-22 00:30N 51°17' E 004°20'15 6.8
2018-Apr-21 22:18N 51°32' E 004°14'3 9.0
2018-Apr-21 21:58N 51°35' E 004°13'4 7.8
2018-Apr-21 21:30N 51°38' E 004°14'510.0
2018-Apr-21 20:59N 51°40' E 004°22'2 4.5
2018-Apr-21 20:30N 51°41' E 004°25'3 6.2
2018-Apr-21 20:00N 51°42' E 004°30'510.1
2018-Apr-21 19:30N 51°43' E 004°38'5 9.5
2018-Apr-21 19:00N 51°45' E 004°44'4 8.7
2018-Apr-21 18:30N 51°48' E 004°50'5 9.9
2018-Apr-21 18:00N 51°50' E 004°57'610.8
2018-Apr-21 17:30N 51°49' E 005°06'510.8
2018-Apr-21 17:00N 51°49' E 005°15'5 9.6
2018-Apr-21 16:31N 51°49' E 005°23'910.5
2018-Apr-21 15:36N 51°54' E 005°36'111.6
2018-Apr-21 15:31N 51°54' E 005°38'1010.4
2018-Apr-21 14:32N 51°52' E 005°54'111.9
2018-Apr-21 14:28N 51°53' E 005°55'4 8.3
2018-Apr-21 14:00N 51°53' E 006°01'611.0
2018-Apr-21 13:30N 51°51' E 006°10'1210.3
2018-Apr-21 12:22N 51°44' E 006°25'3 9.3
2018-Apr-21 12:00N 51°41' E 006°28'510.5
2018-Apr-21 11:30N 51°39' E 006°36'510.2
2018-Apr-21 11:00N 51°34' E 006°37'4 7.9
2018-Apr-21 10:30N 51°32' E 006°42'3 6.8
2018-Apr-21 10:00N 51°28' E 006°43'5 9.5
2018-Apr-21 09:30N 51°24' E 006°45'4 7.7
2018-Apr-21 09:00N 51°21' E 006°40'4 8.4
2018-Apr-21 08:30N 51°17' E 006°42'3 6.7
2018-Apr-21 08:00N 51°14' E 006°45'3 6.0
2018-Apr-21 07:30N 51°11' E 006°47'3 5.1
2018-Apr-21 07:00N 51°10' E 006°51'4 8.4
2018-Apr-21 06:30N 51°06' E 006°52'4 8.3
2018-Apr-21 06:00N 51°03' E 006°57'5 9.6
2018-Apr-21 05:30N 50°58' E 006°60'4 9.0
2018-Apr-21 05:00N 50°54' E 007°00'3 5.6
2018-Apr-21 04:30N 50°51' E 006°60'4 8.7
2018-Apr-21 04:00N 50°47' E 007°02'510.9
2018-Apr-21 03:30N 50°43' E 007°08'611.1
2018-Apr-21 03:00N 50°38' E 007°13'5 9.9
2018-Apr-21 02:28N 50°34' E 007°17'72 7.6
2018-Apr-20 17:00N 49°36' E 008°25'5 9.7
2018-Apr-20 16:30N 49°32' E 008°26'5 9.0
2018-Apr-20 16:00N 49°27' E 008°27'4 8.0
2018-Apr-20 15:30N 49°24' E 008°30'111 5.5
2018-Apr-19 19:14N 47°39' E 007°31'0 1.1
2018-Apr-19 18:54N 47°39' E 007°32'0 0.6
2018-Apr-19 18:30N 47°39' E 007°32'3 7.0
2018-Apr-19 18:00N 47°36' E 007°35'0 0.0
2018-Apr-19 17:30N 47°36' E 007°35'0 0.0
2018-Apr-19 17:00N 47°36' E 007°35'0 0.0
2018-Apr-19 16:30N 47°36' E 007°35'0 0.0
2018-Apr-19 16:00N 47°36' E 007°35'0 0.0
2018-Apr-19 15:30N 47°36' E 007°35'0 0.0
2018-Apr-19 15:00N 47°36' E 007°35'0 0.0
2018-Apr-19 14:30N 47°36' E 007°35'0 0.0
2018-Apr-19 14:00N 47°36' E 007°35'0 0.0
2018-Apr-19 13:30N 47°36' E 007°35'0 0.0
2018-Apr-19 13:00N 47°36' E 007°35'0 0.0
2018-Apr-19 12:30N 47°36' E 007°35'0 0.0
2018-Apr-19 12:00N 47°36' E 007°35'0 0.0
2018-Apr-19 11:30N 47°36' E 007°35'0 0.0
2018-Apr-19 11:00N 47°36' E 007°35'0 0.0
2018-Apr-19 10:30N 47°36' E 007°35'0 0.0
2018-Apr-19 10:00N 47°36' E 007°35'1 1.0
2018-Apr-19 09:30N 47°37' E 007°35'3 6.5
2018-Apr-19 09:00N 47°39' E 007°32'0 0.7
2018-Apr-19 08:25N 47°39' E 007°31'106 4.3
2018-Apr-18 07:40N 49°19' E 008°28'1 4.2
2018-Apr-18 07:30N 49°19' E 008°27'3 5.0
2018-Apr-18 06:51N 49°22' E 008°30'2 5.3
2018-Apr-18 06:30N 49°24' E 008°30'3 5.4
2018-Apr-18 06:00N 49°26' E 008°30'3 5.2
2018-Apr-18 05:30N 49°27' E 008°26'2 4.1
2018-Apr-18 05:00N 49°29' E 008°27'1 3.0
2018-Apr-18 04:30N 49°31' E 008°26'0 0.0
2018-Apr-18 04:00N 49°31' E 008°26'0 0.0
2018-Apr-18 03:30N 49°31' E 008°26'2 3.1
2018-Apr-18 03:00N 49°32' E 008°26'2 4.9
2018-Apr-18 02:30N 49°35' E 008°25'66 3.6
2018-Apr-17 07:58N 50°27' E 007°23'2 4.6
2018-Apr-17 07:30N 50°29' E 007°20'3 5.2
2018-Apr-17 07:00N 50°31' E 007°18'3 5.1
2018-Apr-17 06:30N 50°33' E 007°17'3 5.2
2018-Apr-17 06:00N 50°35' E 007°14'3 5.2
2018-Apr-17 05:30N 50°37' E 007°13'2 4.4
2018-Apr-17 05:00N 50°40' E 007°12'2 4.9
2018-Apr-17 04:30N 50°42' E 007°10'2 4.7
2018-Apr-17 04:00N 50°43' E 007°07'2 4.7
2018-Apr-17 03:30N 50°45' E 007°06'3 5.0
2018-Apr-17 03:00N 50°47' E 007°03'2 4.7
2018-Apr-17 02:30N 50°49' E 007°01'2 4.2
2018-Apr-17 02:00N 50°50' E 006°59'2 4.5
2018-Apr-17 01:30N 50°52' E 007°01'2 3.7
2018-Apr-17 01:00N 50°54' E 007°02'2 4.2
2018-Apr-17 00:30N 50°54' E 006°59'3 5.1
2018-Apr-17 00:00N 50°57' E 006°58'2 4.9
2018-Apr-16 23:30N 50°59' E 006°60'2 4.4
2018-Apr-16 23:00N 51°01' E 006°58'2 4.7
2018-Apr-16 22:30N 51°03' E 006°56'3 5.1
2018-Apr-16 22:00N 51°04' E 006°53'1 3.0
2018-Apr-16 21:30N 51°06' E 006°52'2 3.8
2018-Apr-16 21:00N 51°07' E 006°51'2 4.4
2018-Apr-16 20:30N 51°10' E 006°51'2 4.4
2018-Apr-16 20:00N 51°09' E 006°48'2 4.7
2018-Apr-16 19:30N 51°11' E 006°47'2 4.6
2018-Apr-16 19:00N 51°11' E 006°44'2 4.6
2018-Apr-16 18:30N 51°14' E 006°44'1 3.0
2018-Apr-16 18:00N 51°14' E 006°46'2 4.7
2018-Apr-16 17:30N 51°16' E 006°43'2 3.7
2018-Apr-16 17:00N 51°17' E 006°43'2 4.6
2018-Apr-16 16:30N 51°20' E 006°44'3 5.2
2018-Apr-16 16:00N 51°21' E 006°40'2 3.1
2018-Apr-16 15:30N 51°22' E 006°41'2 4.9
2018-Apr-16 15:00N 51°24' E 006°44'2 4.5
2018-Apr-16 14:30N 51°26' E 006°43'2 4.7
2018-Apr-16 14:00N 51°28' E 006°43'2 3.6
2018-Apr-16 13:30N 51°29' E 006°41'2 3.7
2018-Apr-16 13:00N 51°31' E 006°43'2 4.5
2018-Apr-16 12:30N 51°33' E 006°41'2 3.7
2018-Apr-16 11:59N 51°34' E 006°38'2 3.4
2018-Apr-16 11:30N 51°35' E 006°36'3 5.5
2018-Apr-16 10:59N 51°38' E 006°36'2 3.8
2018-Apr-16 10:28N 51°40' E 006°34'3 5.5
2018-Apr-16 09:59N 51°40' E 006°30'3 5.4
2018-Apr-16 09:28N 51°42' E 006°28'10 4.9
2018-Apr-16 07:22N 51°49' E 006°16'2 6.0
2018-Apr-16 07:00N 51°50' E 006°12'3 5.4
2018-Apr-16 06:30N 51°51' E 006°08'3 6.0
2018-Apr-16 06:00N 51°52' E 006°04'0 0.4
2018-Apr-16 05:30N 51°52' E 006°03'2 4.4
2018-Apr-16 05:00N 51°53' E 005°60'3 4.6
2018-Apr-16 04:16N 51°52' E 005°54'2 5.5
2018-Apr-16 03:53N 51°51' E 005°51'3 6.3
2018-Apr-16 03:29N 51°53' E 005°48'3 6.5
2018-Apr-16 03:00N 51°53' E 005°43'3 6.4
2018-Apr-16 02:30N 51°54' E 005°38'3 6.5
2018-Apr-16 02:00N 51°54' E 005°33'3 6.3
2018-Apr-16 01:30N 51°53' E 005°28'3 6.2
2018-Apr-16 01:00N 51°51' E 005°25'3 6.4
2018-Apr-16 00:29N 51°48' E 005°21'3 5.8
2018-Apr-16 00:00N 51°49' E 005°17'3 6.6
2018-Apr-15 23:30N 51°49' E 005°12'3 6.5
2018-Apr-15 23:00N 51°49' E 005°07'3 6.5
2018-Apr-15 22:30N 51°49' E 005°01'4 7.6
2018-Apr-15 22:00N 51°50' E 004°55'4 7.5
2018-Apr-15 21:30N 51°49' E 004°49'4 7.4
2018-Apr-15 21:00N 51°49' E 004°43'4 7.8
2018-Apr-15 20:30N 51°48' E 004°37'3 6.8
2018-Apr-15 20:00N 51°50' E 004°33'4 7.5
2018-Apr-15 19:30N 51°50' E 004°27'4 7.2
2018-Apr-15 19:00N 51°51' E 004°21'3 7.0
2018-Apr-15 18:30N 51°52' E 004°16'2 4.1
2018-Apr-15 18:00N 51°54' E 004°14'2 4.6
2018-Apr-15 17:30N 51°56' E 004°12'1 2.8
2018-Apr-15 17:00N 51°56' E 004°10'0 0.0
2018-Apr-15 16:30N 51°56' E 004°10'0 0.0
2018-Apr-15 16:00N 51°56' E 004°10'0 0.0
2018-Apr-15 15:30N 51°56' E 004°10'0 0.0
2018-Apr-15 15:00N 51°56' E 004°10'0 0.0
2018-Apr-15 14:30N 51°56' E 004°10'0 0.0
2018-Apr-15 14:00N 51°56' E 004°10'0 0.0
2018-Apr-15 13:30N 51°56' E 004°10'0 0.0
2018-Apr-15 13:00N 51°56' E 004°10'0 0.0
2018-Apr-15 12:30N 51°56' E 004°10'0 0.0
2018-Apr-15 12:00N 51°56' E 004°10'0 0.0
2018-Apr-15 11:30N 51°56' E 004°10'0 0.0
2018-Apr-15 11:00N 51°56' E 004°10'0 0.0
2018-Apr-15 10:30N 51°56' E 004°10'0 0.0
2018-Apr-15 10:00N 51°56' E 004°10'0 0.0
2018-Apr-15 09:30N 51°56' E 004°10'0 0.0
2018-Apr-15 09:00N 51°56' E 004°10'3 6.7
2018-Apr-15 08:30N 51°54' E 004°14'0 0.5
2018-Apr-15 08:00N 51°54' E 004°14'0 0.0
2018-Apr-15 07:30N 51°54' E 004°14'0 0.0
2018-Apr-15 07:00N 51°54' E 004°14'0 0.0
2018-Apr-15 06:30N 51°54' E 004°14'0 0.0
2018-Apr-15 06:00N 51°54' E 004°14'0 0.0
2018-Apr-15 05:30N 51°54' E 004°14'0 0.0
2018-Apr-15 05:00N 51°54' E 004°14'0 0.0
2018-Apr-15 04:30N 51°54' E 004°14'0 0.0
2018-Apr-15 03:59N 51°54' E 004°14'0 0.0
2018-Apr-15 03:30N 51°54' E 004°14'0 0.0
2018-Apr-15 03:00N 51°54' E 004°14'0 0.0
2018-Apr-15 02:30N 51°54' E 004°14'0 0.0
2018-Apr-15 02:00N 51°54' E 004°14'0 0.0
2018-Apr-15 01:30N 51°54' E 004°14'0 0.0
2018-Apr-15 01:00N 51°54' E 004°14'0 0.0
2018-Apr-15 00:30N 51°54' E 004°14'0 0.0
2018-Apr-15 00:00N 51°54' E 004°14'0 0.0
2018-Apr-14 23:30N 51°54' E 004°14'0 0.0
2018-Apr-14 23:00N 51°54' E 004°14'0 0.0
2018-Apr-14 22:30N 51°54' E 004°14'0 0.0
2018-Apr-14 22:00N 51°54' E 004°14'0 0.0
2018-Apr-14 21:30N 51°54' E 004°14'0 0.0
2018-Apr-14 20:59N 51°54' E 004°14'0 0.0
2018-Apr-14 20:30N 51°54' E 004°14'0 0.0
2018-Apr-14 20:00N 51°54' E 004°14'0 0.0
2018-Apr-14 19:29N 51°54' E 004°14'0 0.0
2018-Apr-14 18:59N 51°54' E 004°14'0 0.0
2018-Apr-14 18:30N 51°54' E 004°14'0 0.0
2018-Apr-14 17:59N 51°54' E 004°14'0 0.0
2018-Apr-14 17:30N 51°54' E 004°14'0 0.0
2018-Apr-14 17:00N 51°54' E 004°14'0 0.0
2018-Apr-14 16:30N 51°54' E 004°14'0 0.0
2018-Apr-14 16:00N 51°54' E 004°14'0 0.0
2018-Apr-14 15:30N 51°54' E 004°14'0 0.0
2018-Apr-14 15:00N 51°54' E 004°14'0 0.0
2018-Apr-14 14:30N 51°54' E 004°14'0 0.0
2018-Apr-14 14:00N 51°54' E 004°14'0 0.0
2018-Apr-14 13:30N 51°54' E 004°14'0 0.0
2018-Apr-14 13:00N 51°54' E 004°14'0 0.0
2018-Apr-14 12:29N 51°54' E 004°14'0 0.0
2018-Apr-14 12:00N 51°54' E 004°14'0 0.0
2018-Apr-14 11:30N 51°54' E 004°14'0 0.0
2018-Apr-14 11:00N 51°54' E 004°14'0 0.0
2018-Apr-14 10:30N 51°54' E 004°14'0 0.0
2018-Apr-14 10:00N 51°54' E 004°14'0 0.0
2018-Apr-14 09:30N 51°54' E 004°14'0 0.0
2018-Apr-14 09:00N 51°54' E 004°14'0 0.0
2018-Apr-14 08:30N 51°54' E 004°14'0 0.0
2018-Apr-14 08:00N 51°54' E 004°14'0 0.0
2018-Apr-14 07:30N 51°54' E 004°14'0 0.0
2018-Apr-14 07:00N 51°54' E 004°14'0 0.0
2018-Apr-14 06:30N 51°54' E 004°14'0 0.0
2018-Apr-14 06:00N 51°54' E 004°14'0 0.0
2018-Apr-14 05:30N 51°54' E 004°14'0 0.0
2018-Apr-14 05:00N 51°54' E 004°14'0 0.0
2018-Apr-14 04:30N 51°54' E 004°14'0 0.0
2018-Apr-14 04:00N 51°54' E 004°14'0 0.0
2018-Apr-14 03:30N 51°54' E 004°14'0 0.0
2018-Apr-14 03:00N 51°54' E 004°14'0 0.0
2018-Apr-14 02:30N 51°54' E 004°14'0 0.0
2018-Apr-14 02:00N 51°54' E 004°14'0 0.0
2018-Apr-14 01:30N 51°54' E 004°14'0 0.0
2018-Apr-14 01:00N 51°54' E 004°14'0 0.0
2018-Apr-14 00:30N 51°54' E 004°14'0 0.0
2018-Apr-14 00:00N 51°54' E 004°14'0 0.0
2018-Apr-13 23:30N 51°54' E 004°14'0 0.0
2018-Apr-13 23:00N 51°54' E 004°14'0 0.0
2018-Apr-13 22:30N 51°54' E 004°14'0 0.0
2018-Apr-13 22:00N 51°54' E 004°14'0 0.0
2018-Apr-13 21:30N 51°54' E 004°14'0 0.0
2018-Apr-13 21:00N 51°54' E 004°14'0 0.0
2018-Apr-13 20:30N 51°54' E 004°14'0 0.0
2018-Apr-13 20:00N 51°54' E 004°14'0 0.0
2018-Apr-13 19:30N 51°54' E 004°14'0 0.0
2018-Apr-13 19:00N 51°54' E 004°14'0 0.0
2018-Apr-13 18:30N 51°54' E 004°14'0 0.0
2018-Apr-13 18:00N 51°54' E 004°14'0 0.0
2018-Apr-13 17:30N 51°54' E 004°14'0 0.0
2018-Apr-13 17:00N 51°54' E 004°14'0 0.0
2018-Apr-13 16:30N 51°54' E 004°14'0 0.0
2018-Apr-13 16:00N 51°54' E 004°14'0 0.3
2018-Apr-13 15:30N 51°54' E 004°14'1 2.9
2018-Apr-13 15:00N 51°52' E 004°15'4 7.3
2018-Apr-13 14:30N 51°51' E 004°21'4 7.4
2018-Apr-13 14:00N 51°50' E 004°26'4 7.8
2018-Apr-13 13:30N 51°50' E 004°33'4 7.0
2018-Apr-13 13:00N 51°48' E 004°38'4 7.1
2018-Apr-13 12:30N 51°49' E 004°43'4 8.6
2018-Apr-13 12:00N 51°49' E 004°50'5 9.1
2018-Apr-13 11:30N 51°50' E 004°57'  

Dump ship's entire track history